Latest METAR Data

Below are the latest METARs ("Meteorological Services to Airmen Reports"), for RNAS Culdrose and Newquay Airport.

EGDR - RNAS Culdrose
Distance from station: SW 6mi, 9km
Updated: Fri, 28-Jan-2022 3:50am GMT
Partly Cloudy
Partly Cloudy
 Wind from NE
Wind: NE 3 mph , 6 km/h
Temperature: 36°F , 2°C
Dew Point: 34°F , 1°C
Humidity: 93%
Barometer: 30.59 inHg , 1036 hPa
Clouds: Partly Cloudy
Visibility: 4 miles , 6 km
Cloud details: Partly Cloudy 1900 ft
2022/01/28 03:50 EGDR 280350Z AUTO 05003KT 6000 SCT019/// 02/01 Q1036
EGHQ - Newquay Airport
Distance from station: NE 21mi, 34km
Updated: Fri, 28-Jan-2022 4:50am GMT
Mostly Cloudy
Mostly Cloudy
 Wind from SSE
Wind: SSE 5 mph , 7 km/h
Clouds: Mostly Cloudy
Visibility: 6 miles , 10 km
Cloud details: Mostly Cloudy 2100 ft
2022/01/28 04:50 EGHQ 280450Z AUTO 15004KT 9999 BKN021/// ///// Q////
 
EGTE - Exeter Airport
Distance from station: ENE 88mi, 141km
Updated: Fri, 28-Jan-2022 2:20am GMT
NOT Current
Shallow fog, Few clouds
Shallow fog, Few clouds
 Wind from NE
Wind: NE 3 mph , 6 km/h
Temperature: 30°F , -1°C
Dew Point: 28°F , -2°C
Humidity: 93%
Barometer: 30.59 inHg , 1036 hPa
Summary: Shallow Fog
Clouds: Few Clouds
Visibility: 3 miles , 5 km
Cloud details: Few Clouds 0 ft
2022/01/28 02:20 EGTE 280220Z 05003KT 5000 1600E MIFG FEW000 M01/M02 Q1036
EGHE - St Marys, IOS
Distance from station: W 51mi, 82km
Updated: Thu, 27-Jan-2022 2:50pm GMT
NOT Current
Mist, Overcast
Mist, Overcast
 Wind from W
Wind: W 15 mph , 24 km/h
Temperature: 52°F , 11°C
Dew Point: 52°F , 11°C
Humidity: 100%
Barometer: 30.47 inHg , 1032 hPa
Summary: Mist
Clouds: Overcast
Visibility: 1 mile , 2 km
Cloud details: Partly Cloudy 0 ft
Overcast 200 ft
2022/01/27 14:50 EGHE 271450Z 28013KT 2000 BR SCT000 OVC002 11/11 Q1032

Metar display script from Saratoga-Weather.org

 

 

UK - WEATHER STATION TOPSITES - UK World Weather Websites

Copyright © Carnkie Weather 2009 - 2022.